createdAt,value
2018-02-10T00:01:09.698Z,27.35
2018-02-10T00:03:39.780Z,29.70
2018-02-10T00:06:10.048Z,27.87
2018-02-10T00:08:38.361Z,28.75
2018-02-10T00:11:06.668Z,27.40
2018-02-10T00:13:34.954Z,24.87
2018-02-10T00:16:03.253Z,28.52
2018-02-10T00:18:31.569Z,25.55
2018-02-10T00:20:59.845Z,27.10
2018-02-10T00:23:28.156Z,31.65
2018-02-10T00:25:56.433Z,26.40
2018-02-10T00:28:24.750Z,28.77
2018-02-10T00:30:53.049Z,25.88
2018-02-10T00:33:21.356Z,29.42
2018-02-10T00:35:49.632Z,22.92
2018-02-10T00:38:17.977Z,23.73
2018-02-10T00:40:46.862Z,26.55
2018-02-10T00:43:15.107Z,26.25
2018-02-10T00:45:43.428Z,27.90
2018-02-10T00:48:14.533Z,24.70
2018-02-10T00:50:42.858Z,25.92
2018-02-10T00:53:14.794Z,27.67
2018-02-10T00:55:43.091Z,23.73
2018-02-10T00:58:18.074Z,29.08
2018-02-10T01:00:46.356Z,26.90
2018-02-10T01:03:14.629Z,25.80
2018-02-10T01:05:42.950Z,24.35
2018-02-10T01:08:18.873Z,27.73
2018-02-10T01:10:47.180Z,24.02
2018-02-10T01:13:15.476Z,24.70
2018-02-10T01:15:43.786Z,27.23
2018-02-10T01:18:15.971Z,29.77
2018-02-10T01:20:44.245Z,26.85
2018-02-10T01:23:15.720Z,29.87
2018-02-10T01:25:44.013Z,29.65
2018-02-10T01:28:15.952Z,30.02
2018-02-10T01:30:44.248Z,30.05
2018-02-10T01:33:16.004Z,32.33
2018-02-10T01:35:44.386Z,33.00
2018-02-10T01:38:16.061Z,33.40
2018-02-10T01:40:45.560Z,30.88
2018-02-10T01:43:15.698Z,32.38
2018-02-10T01:45:43.996Z,32.47
2018-02-10T01:48:15.595Z,30.27
2018-02-10T01:50:43.861Z,31.98
2018-02-10T01:53:16.556Z,35.90
2018-02-10T01:55:44.852Z,32.63
2018-02-10T01:58:16.950Z,33.47
2018-02-10T02:00:45.532Z,35.88
2018-02-10T02:03:15.154Z,38.00
2018-02-10T02:05:43.651Z,38.47
2018-02-10T02:08:14.864Z,37.72
2018-02-10T02:10:43.157Z,35.92
2018-02-10T02:13:17.189Z,38.55
2018-02-10T02:15:45.479Z,36.35
2018-02-10T02:18:14.763Z,38.03
2018-02-10T02:20:43.148Z,41.03
2018-02-10T02:23:15.549Z,36.88
2018-02-10T02:25:43.863Z,40.25
2018-02-10T02:28:15.651Z,38.75
2018-02-10T02:30:43.961Z,41.63
2018-02-10T02:33:15.691Z,42.45
2018-02-10T02:35:43.960Z,41.65
2018-02-10T02:38:15.624Z,43.22
2018-02-10T02:40:43.931Z,42.85
2018-02-10T02:43:15.455Z,41.80
2018-02-10T02:45:44.208Z,41.37
2018-02-10T02:48:15.603Z,44.88
2018-02-10T02:50:44.246Z,38.90
2018-02-10T02:53:15.855Z,42.62
2018-02-10T02:55:44.134Z,34.38
2018-02-10T02:58:15.469Z,36.30
2018-02-10T03:00:43.781Z,41.53
2018-02-10T03:03:15.570Z,37.28
2018-02-10T03:05:44.354Z,36.15
2018-02-10T03:08:15.776Z,39.00
2018-02-10T03:10:44.056Z,36.53
2018-02-10T03:13:16.151Z,41.42
2018-02-10T03:15:44.433Z,39.25
2018-02-10T03:18:16.356Z,39.05
2018-02-10T03:20:44.663Z,37.80
2018-02-10T03:23:17.686Z,39.13
2018-02-10T03:25:45.987Z,37.42
2018-02-10T03:28:14.704Z,39.25
2018-02-10T03:30:43.084Z,36.80
2018-02-10T03:33:18.069Z,34.00
2018-02-10T03:35:46.378Z,37.75
2018-02-10T03:38:14.661Z,34.08
2018-02-10T03:40:43.141Z,33.17
2018-02-10T03:43:14.716Z,34.10
2018-02-10T03:45:43.024Z,34.63
2018-02-10T03:48:19.150Z,35.83
2018-02-10T03:50:47.470Z,36.92
2018-02-10T03:53:15.751Z,34.92
2018-02-10T03:55:44.020Z,34.83
2018-02-10T03:58:15.988Z,41.05
2018-02-10T04:00:44.280Z,39.90
2018-02-10T04:03:15.708Z,38.88
2018-02-10T04:05:43.980Z,35.03
2018-02-10T04:08:15.690Z,38.92
2018-02-10T04:10:44.000Z,35.78
2018-02-10T04:13:16.008Z,37.10
2018-02-10T04:15:44.292Z,39.55
2018-02-10T04:18:16.325Z,36.38
2018-02-10T04:20:44.860Z,35.13
2018-02-10T04:23:14.813Z,39.95
2018-02-10T04:25:43.256Z,32.47
2018-02-10T04:28:14.708Z,35.88
2018-02-10T04:30:43.011Z,34.45
2018-02-10T04:33:18.030Z,35.75
2018-02-10T04:35:46.313Z,34.85
2018-02-10T04:38:14.634Z,37.92
2018-02-10T04:40:42.940Z,38.70
2018-02-10T04:43:17.969Z,36.45
2018-02-10T04:45:46.316Z,38.88
2018-02-10T04:48:14.700Z,35.40
2018-02-10T04:50:43.002Z,39.28
2018-02-10T04:53:14.440Z,33.38
2018-02-10T04:55:42.753Z,43.50
2018-02-10T04:58:14.388Z,36.40
2018-02-10T05:00:42.754Z,33.67
2018-02-10T05:03:17.661Z,31.15
2018-02-10T05:05:46.272Z,31.67
2018-02-10T05:08:14.630Z,34.45
2018-02-10T05:10:42.931Z,30.98
2018-02-10T05:13:15.098Z,32.80
2018-02-10T05:15:43.394Z,32.97
2018-02-10T05:18:15.422Z,35.20
2018-02-10T05:20:43.696Z,34.78
2018-02-10T05:23:15.708Z,36.17
2018-02-10T05:25:43.984Z,34.55
2018-02-10T05:28:15.861Z,33.55
2018-02-10T05:30:44.152Z,35.42
2018-02-10T05:33:16.525Z,34.00
2018-02-10T05:35:45.348Z,34.80
2018-02-10T05:38:14.649Z,31.83
2018-02-10T05:40:42.964Z,33.75
2018-02-10T05:43:18.100Z,36.70
2018-02-10T05:45:46.416Z,33.30
2018-02-10T05:48:14.700Z,32.72
2018-02-10T05:50:43.006Z,36.05
2018-02-10T05:53:14.459Z,31.80
2018-02-10T05:55:42.862Z,34.15
2018-02-10T05:58:14.653Z,33.28
2018-02-10T06:00:42.986Z,32.95
2018-02-10T06:03:15.384Z,33.15
2018-02-10T06:05:43.691Z,38.22
2018-02-10T06:08:15.192Z,34.40
2018-02-10T06:10:43.692Z,33.85
2018-02-10T06:13:15.624Z,37.08
2018-02-10T06:15:44.232Z,34.17
2018-02-10T06:18:16.423Z,31.83
2018-02-10T06:20:44.965Z,35.72
2018-02-10T06:23:14.781Z,32.53
2018-02-10T06:25:43.224Z,33.78
2018-02-10T06:28:14.860Z,36.00
2018-02-10T06:30:43.149Z,34.17
2018-02-10T06:33:17.105Z,34.08
2018-02-10T06:35:45.381Z,33.25
2018-02-10T06:38:15.170Z,34.97
2018-02-10T06:40:44.181Z,34.42
2018-02-10T06:43:16.156Z,35.05
2018-02-10T06:45:44.424Z,34.50
2018-02-10T06:48:15.648Z,36.40
2018-02-10T06:50:44.072Z,36.63
2018-02-10T06:53:15.992Z,35.03
2018-02-10T06:55:44.298Z,34.58
2018-02-10T06:58:15.652Z,36.50
2018-02-10T07:00:44.589Z,33.90
2018-02-10T07:03:15.671Z,32.85
2018-02-10T07:05:44.136Z,33.85
2018-02-10T07:08:15.992Z,31.75
2018-02-10T07:10:44.545Z,33.40
2018-02-10T07:13:16.228Z,34.03
2018-02-10T07:15:44.788Z,31.52
2018-02-10T07:18:14.802Z,32.90
2018-02-10T07:20:43.085Z,33.13
2018-02-10T07:23:14.674Z,36.13
2018-02-10T07:25:42.992Z,34.67
2018-02-10T07:28:14.458Z,33.17
2018-02-10T07:30:42.752Z,33.50
2018-02-10T07:33:14.148Z,34.53
2018-02-10T07:35:42.430Z,36.45
2018-02-10T07:38:13.972Z,33.83
2018-02-10T07:40:42.431Z,38.53
2018-02-10T07:43:16.286Z,33.28
2018-02-10T07:45:44.873Z,34.58
2018-02-10T07:48:15.052Z,34.13
2018-02-10T07:50:43.332Z,32.75
2018-02-10T07:53:17.841Z,32.97
2018-02-10T07:55:46.142Z,31.17
2018-02-10T07:58:15.065Z,33.97
2018-02-10T08:00:43.773Z,32.95
2018-02-10T08:03:14.640Z,32.25
2018-02-10T08:05:42.917Z,30.35
2018-02-10T08:08:21.373Z,32.63
2018-02-10T08:10:49.670Z,30.40
2018-02-10T08:13:18.145Z,30.45
2018-02-10T08:15:46.477Z,32.33
2018-02-10T08:18:14.753Z,34.85
2018-02-10T08:20:43.069Z,29.63
2018-02-10T08:23:18.239Z,31.50
2018-02-10T08:25:46.611Z,31.55
2018-02-10T08:28:14.869Z,29.23
2018-02-10T08:30:43.236Z,30.90
2018-02-10T08:33:17.250Z,34.92
2018-02-10T08:35:45.565Z,30.95
2018-02-10T08:38:15.138Z,29.67
2018-02-10T08:40:43.428Z,31.25
2018-02-10T08:43:14.638Z,30.67
2018-02-10T08:45:43.245Z,29.23
2018-02-10T08:48:15.330Z,27.42
2018-02-10T08:50:43.614Z,29.27
2018-02-10T08:53:15.836Z,30.52
2018-02-10T08:55:44.260Z,29.40
2018-02-10T08:58:16.396Z,29.83
2018-02-10T09:00:44.681Z,27.55
2018-02-10T09:03:14.596Z,29.20
2018-02-10T09:05:42.881Z,26.70
2018-02-10T09:08:14.330Z,28.45
2018-02-10T09:10:42.608Z,26.20
2018-02-10T09:13:14.709Z,23.83
2018-02-10T09:15:43.048Z,26.98
2018-02-10T09:18:14.271Z,24.15
2018-02-10T09:20:42.812Z,28.10
2018-02-10T09:23:14.734Z,24.30
2018-02-10T09:25:43.037Z,26.58
2018-02-10T09:28:13.829Z,23.48
2018-02-10T09:30:42.106Z,20.92
2018-02-10T09:33:17.272Z,23.17
2018-02-10T09:35:45.577Z,19.98
2018-02-10T09:38:14.349Z,22.92
2018-02-10T09:40:42.645Z,22.17
2018-02-10T09:43:13.916Z,21.85
2018-02-10T09:45:43.081Z,19.92
2018-02-10T09:48:14.261Z,19.98
2018-02-10T09:50:42.772Z,22.15
2018-02-10T09:53:14.832Z,20.42
2018-02-10T09:55:43.173Z,19.77
2018-02-10T09:58:15.232Z,20.05
2018-02-10T10:00:43.545Z,20.62
2018-02-10T10:03:14.966Z,21.33
2018-02-10T10:05:43.268Z,20.15
2018-02-10T10:08:30.233Z,17.52
2018-02-10T10:10:58.907Z,21.27
2018-02-10T10:13:27.205Z,19.55
2018-02-10T10:15:55.701Z,18.00
2018-02-10T10:18:24.008Z,16.37
2018-02-10T10:20:52.299Z,20.17
2018-02-10T10:23:20.592Z,17.62
2018-02-10T10:25:48.889Z,18.50
2018-02-10T10:28:17.530Z,17.98
2018-02-10T10:30:45.820Z,16.92
2018-02-10T10:33:14.324Z,19.87
2018-02-10T10:35:42.608Z,17.42
2018-02-10T10:38:14.422Z,18.40
2018-02-10T10:40:42.883Z,19.40
2018-02-10T10:43:15.959Z,18.95
2018-02-10T10:45:44.268Z,18.77
2018-02-10T10:48:15.634Z,17.65
2018-02-10T10:50:44.347Z,18.33
2018-02-10T10:53:14.485Z,18.27
2018-02-10T10:55:43.009Z,17.02
2018-02-10T10:58:15.137Z,16.85
2018-02-10T11:00:43.917Z,16.42
2018-02-10T11:03:13.857Z,18.87
2018-02-10T11:05:42.858Z,17.48
2018-02-10T11:08:16.893Z,18.05
2018-02-10T11:10:45.310Z,15.80
2018-02-10T11:13:14.423Z,18.37
2018-02-10T11:15:42.721Z,18.08
2018-02-10T11:18:13.730Z,14.73
2018-02-10T11:20:44.802Z,16.48
2018-02-10T11:23:16.220Z,15.60
2018-02-10T11:25:49.425Z,17.02
2018-02-10T11:28:19.088Z,17.50
2018-02-10T11:30:48.837Z,18.87
2018-02-10T11:33:22.974Z,16.17
2018-02-10T11:35:57.862Z,18.77
2018-02-10T11:38:28.355Z,17.48
2018-02-10T11:40:58.035Z,17.40
2018-02-10T11:43:28.389Z,18.27
2018-02-10T11:45:58.378Z,16.77
2018-02-10T11:48:28.519Z,15.68
2018-02-10T11:50:59.403Z,16.50
2018-02-10T11:53:29.094Z,14.10
2018-02-10T11:55:58.853Z,16.92
2018-02-10T11:58:29.731Z,16.55
2018-02-10T12:01:03.102Z,17.25
2018-02-10T12:03:32.255Z,18.10
2018-02-10T12:06:01.169Z,16.35
2018-02-10T12:08:30.401Z,14.10
2018-02-10T12:10:58.721Z,16.48
2018-02-10T12:13:27.550Z,13.55
2018-02-10T12:15:55.804Z,15.98
2018-02-10T12:18:24.096Z,13.35
2018-02-10T12:20:53.621Z,11.65
2018-02-10T12:23:22.454Z,14.07
2018-02-10T12:25:50.993Z,14.87
2018-02-10T12:28:19.301Z,13.48
2018-02-10T12:30:47.613Z,14.80
2018-02-10T12:33:15.913Z,12.93
2018-02-10T12:35:44.221Z,14.68
2018-02-10T12:38:14.029Z,12.75
2018-02-10T12:40:42.351Z,16.80
2018-02-10T12:43:14.758Z,14.43
2018-02-10T12:45:43.085Z,14.40
2018-02-10T12:48:20.065Z,14.25
2018-02-10T12:50:48.367Z,16.60
2018-02-10T12:53:17.025Z,15.05
2018-02-10T12:55:45.316Z,16.27
2018-02-10T12:58:14.469Z,16.48
2018-02-10T13:00:43.810Z,14.35
2018-02-10T13:03:13.828Z,15.65
2018-02-10T13:05:42.129Z,16.00
2018-02-10T13:08:17.466Z,13.43
2018-02-10T13:10:45.765Z,15.15
2018-02-10T13:13:14.093Z,14.55
2018-02-10T13:15:42.432Z,15.45
2018-02-10T13:18:14.013Z,15.65
2018-02-10T13:20:42.520Z,15.65
2018-02-10T13:23:13.860Z,16.05
2018-02-10T13:25:42.313Z,15.27
2018-02-10T13:28:14.240Z,27.45
2018-02-10T13:30:42.555Z,20.80
2018-02-10T13:33:13.906Z,22.35
2018-02-10T13:35:42.249Z,28.00
2018-02-10T13:38:13.779Z,19.37
2018-02-10T13:40:43.078Z,9.90
2018-02-10T13:43:15.231Z,9.57
2018-02-10T13:45:43.798Z,9.90
2018-02-10T13:51:13.110Z,9.65
2018-02-10T13:53:41.412Z,10.10
2018-02-10T13:56:09.990Z,8.90
2018-02-10T13:58:38.973Z,7.93
2018-02-10T14:01:07.258Z,8.23
2018-02-10T14:03:35.560Z,9.65
2018-02-10T14:06:04.073Z,8.82
2018-02-10T14:08:32.968Z,8.40
2018-02-10T14:11:01.244Z,7.43
2018-02-10T14:13:29.599Z,7.78
2018-02-10T14:15:57.905Z,7.57
2018-02-10T14:18:26.244Z,7.93
2018-02-10T14:20:54.514Z,7.93
2018-02-10T14:23:22.796Z,8.10
2018-02-10T14:25:51.100Z,10.10
2018-02-10T14:28:19.416Z,8.63
2018-02-10T14:30:47.755Z,10.33
2018-02-10T14:33:16.044Z,9.20
2018-02-10T14:35:44.346Z,9.82
2018-02-10T14:38:14.108Z,9.85
2018-02-10T14:40:42.825Z,8.95
2018-02-10T14:43:14.781Z,7.50
2018-02-10T14:45:43.032Z,8.85
2018-02-10T14:48:15.337Z,7.25
2018-02-10T14:50:43.602Z,7.32
2018-02-10T14:53:14.913Z,8.43
2018-02-10T14:55:43.173Z,9.82
2018-02-10T14:58:14.649Z,9.85
2018-02-10T15:00:42.945Z,9.27
2018-02-10T15:03:14.808Z,9.95
2018-02-10T15:05:43.133Z,9.98
2018-02-10T15:08:15.248Z,10.27
2018-02-10T15:10:43.572Z,13.15
2018-02-10T15:13:13.672Z,11.07
2018-02-10T15:15:42.209Z,14.52
2018-02-10T15:18:15.214Z,13.75
2018-02-10T15:20:43.562Z,18.10
2018-02-10T15:23:15.535Z,18.02
2018-02-10T15:25:44.640Z,16.42
2018-02-10T15:28:14.446Z,17.42
2018-02-10T15:30:54.445Z,16.65
2018-02-10T15:33:34.369Z,18.23
2018-02-10T15:36:03.341Z,19.27
2018-02-10T15:38:31.636Z,16.35
2018-02-10T15:40:59.924Z,19.65
2018-02-10T15:43:28.259Z,19.30
2018-02-10T15:45:56.864Z,17.33
2018-02-10T15:48:25.293Z,17.55
2018-02-10T15:50:53.600Z,16.80
2018-02-10T15:53:22.066Z,18.83
2018-02-10T15:55:50.620Z,17.92
2018-02-10T15:58:18.931Z,17.10
2018-02-10T16:00:47.531Z,20.10
2018-02-10T16:03:15.994Z,17.02
2018-02-10T16:05:44.268Z,17.77
2018-02-10T16:08:13.876Z,18.95
2018-02-10T16:10:42.160Z,20.40
2018-02-10T16:13:17.233Z,18.23
2018-02-10T16:15:45.544Z,22.20
2018-02-10T16:18:13.873Z,16.73
2018-02-10T16:20:42.156Z,19.20
2018-02-10T16:23:14.089Z,18.27
2018-02-10T16:25:43.083Z,16.90
2018-02-10T16:28:14.996Z,20.10
2018-02-10T16:30:43.314Z,16.52
2018-02-10T16:33:14.710Z,15.50
2018-02-10T16:35:43.292Z,19.35
2018-02-10T16:38:15.193Z,20.20
2018-02-10T16:40:43.498Z,16.52
2018-02-10T16:43:14.768Z,17.52
2018-02-10T16:45:43.342Z,21.23
2018-02-10T16:48:13.865Z,15.25
2018-02-10T16:50:42.763Z,16.15
2018-02-10T16:53:14.763Z,18.52
2018-02-10T16:55:43.059Z,15.25
2018-02-10T16:58:15.129Z,16.42
2018-02-10T17:00:43.657Z,13.43
2018-02-10T17:03:14.896Z,17.15
2018-02-10T17:05:43.231Z,17.20
2018-02-10T17:08:14.517Z,16.98
2018-02-10T17:10:43.543Z,18.73
2018-02-10T17:13:15.165Z,15.57
2018-02-10T17:15:43.856Z,16.85
2018-02-10T17:18:16.853Z,16.65
2018-02-10T17:20:45.160Z,16.80
2018-02-10T17:23:14.687Z,16.58
2018-02-10T17:25:43.058Z,19.12
2018-02-10T17:28:15.246Z,20.30
2018-02-10T17:30:44.082Z,24.70
2018-02-10T17:33:14.110Z,20.27
2018-02-10T17:35:42.394Z,22.55
2018-02-10T17:38:13.769Z,19.35
2018-02-10T17:40:42.081Z,18.58
2018-02-10T17:43:13.786Z,20.25
2018-02-10T17:45:42.098Z,17.98
2018-02-10T17:48:13.525Z,20.73
2018-02-10T17:50:41.842Z,18.65
2018-02-10T17:53:13.155Z,18.30
2018-02-10T17:55:41.495Z,22.45
2018-02-10T17:58:16.761Z,21.45
2018-02-10T18:00:45.073Z,20.98
2018-02-10T18:03:13.944Z,20.05
2018-02-10T18:05:42.181Z,20.05
2018-02-10T18:08:21.271Z,21.12
2018-02-10T18:10:49.566Z,18.55
2018-02-10T18:13:17.888Z,20.20
2018-02-10T18:15:46.175Z,24.30
2018-02-10T18:18:14.471Z,18.35
2018-02-10T18:20:42.765Z,20.37
2018-02-10T18:23:14.861Z,19.10
2018-02-10T18:25:43.124Z,20.12
2018-02-10T18:28:15.298Z,21.83
2018-02-10T18:30:43.576Z,19.75
2018-02-10T18:33:16.626Z,20.52
2018-02-10T18:35:44.964Z,20.20
2018-02-10T18:38:14.326Z,20.40
2018-02-10T18:40:42.612Z,21.27
2018-02-10T18:43:14.757Z,21.30
2018-02-10T18:45:43.039Z,19.70
2018-02-10T18:48:13.957Z,20.67
2018-02-10T18:50:42.276Z,20.33
2018-02-10T18:53:16.402Z,22.37
2018-02-10T18:55:44.700Z,19.60
2018-02-10T18:58:14.022Z,19.73
2018-02-10T19:00:42.324Z,15.77
2018-02-10T19:03:14.617Z,17.85
2018-02-10T19:05:42.944Z,17.02
2018-02-10T19:08:13.810Z,13.27
2018-02-10T19:10:42.105Z,15.35
2018-02-10T19:13:17.265Z,15.18
2018-02-10T19:15:45.566Z,11.05
2018-02-10T19:18:13.854Z,12.68
2018-02-10T19:20:42.150Z,12.35
2018-02-10T19:23:13.755Z,10.00
2018-02-10T19:25:42.072Z,11.15
2018-02-10T19:28:18.097Z,14.65
2018-02-10T19:30:46.332Z,11.55
2018-02-10T19:33:14.654Z,14.68
2018-02-10T19:35:43.554Z,17.12
2018-02-10T19:38:15.159Z,18.08
2018-02-10T19:40:43.478Z,13.52
2018-02-10T19:43:15.497Z,12.18
2018-02-10T19:45:43.807Z,11.30
2018-02-10T19:48:17.084Z,7.93
2018-02-10T19:50:45.401Z,9.15
2018-02-10T19:53:13.779Z,8.13
2018-02-10T19:55:42.098Z,9.88
2018-02-10T19:58:13.608Z,9.02
2018-02-10T20:00:42.133Z,6.53
2018-02-10T20:03:16.319Z,9.27
2018-02-10T20:05:44.564Z,7.03
2018-02-10T20:08:13.975Z,7.55
2018-02-10T20:13:16.658Z,6.93
2018-02-10T20:15:44.963Z,6.85
2018-02-10T20:18:13.965Z,7.35
2018-02-10T20:20:42.222Z,7.22
2018-02-10T20:23:17.255Z,6.30
2018-02-10T20:25:45.569Z,7.47
2018-02-10T20:28:13.845Z,7.50
2018-02-10T20:30:42.159Z,7.35
2018-02-10T20:33:17.052Z,7.10
2018-02-10T20:35:45.572Z,6.00
2018-02-10T20:38:13.872Z,8.07
2018-02-10T20:40:42.193Z,6.55
2018-02-10T20:43:17.773Z,7.65
2018-02-10T20:45:46.731Z,8.07
2018-02-10T20:48:15.006Z,7.22
2018-02-10T20:50:43.331Z,6.68
2018-02-10T20:53:15.358Z,8.32
2018-02-10T20:55:43.674Z,7.85
2018-02-10T20:58:13.901Z,7.18
2018-02-10T21:00:43.088Z,7.28
2018-02-10T21:03:14.510Z,6.22
2018-02-10T21:05:42.792Z,5.75
2018-02-10T21:08:14.244Z,5.43
2018-02-10T21:10:42.551Z,8.05
2018-02-10T21:13:16.515Z,6.32
2018-02-10T21:15:44.986Z,6.43
2018-02-10T21:18:14.604Z,5.05
2018-02-10T21:20:43.130Z,6.35
2018-02-10T21:23:17.961Z,6.35
2018-02-10T21:25:46.229Z,5.87
2018-02-10T21:28:14.544Z,7.72
2018-02-10T21:30:42.844Z,5.07
2018-02-10T21:33:14.682Z,5.10
2018-02-10T21:35:42.947Z,7.32
2018-02-10T21:38:15.066Z,5.87
2018-02-10T21:40:43.356Z,5.30
2018-02-10T21:43:15.818Z,6.10
2018-02-10T21:45:44.108Z,6.72
2018-02-10T21:48:15.365Z,6.30
2018-02-10T21:50:43.892Z,6.35
2018-02-10T21:53:13.961Z,5.53
2018-02-10T21:55:42.285Z,7.32
2018-02-10T21:58:13.947Z,7.87
2018-02-10T22:00:42.242Z,6.28
2018-02-10T22:03:13.866Z,7.65
2018-02-10T22:05:42.976Z,6.90
2018-02-10T22:08:14.593Z,6.60
2018-02-10T22:10:42.868Z,7.53
2018-02-10T22:13:14.992Z,6.85
2018-02-10T22:15:44.026Z,7.90
2018-02-10T22:18:15.653Z,7.07
2018-02-10T22:20:47.317Z,8.77
2018-02-10T22:23:19.458Z,8.70
2018-02-10T22:25:48.592Z,6.80
2018-02-10T22:28:16.949Z,5.75
2018-02-10T22:30:45.539Z,6.60
2018-02-10T22:33:13.822Z,6.57
2018-02-10T22:35:42.110Z,6.53
2018-02-10T22:38:13.675Z,7.65
2018-02-10T22:40:41.945Z,7.75
2018-02-10T22:43:17.063Z,6.65
2018-02-10T22:45:45.387Z,5.80
2018-02-10T22:48:13.861Z,10.43
2018-02-10T22:50:42.194Z,7.20
2018-02-10T22:53:14.228Z,8.63
2018-02-10T22:55:42.499Z,6.45
2018-02-10T22:58:14.780Z,8.57
2018-02-10T23:00:43.076Z,7.03
2018-02-10T23:03:15.091Z,6.57
2018-02-10T23:05:43.386Z,7.40
2018-02-10T23:08:15.657Z,9.88
2018-02-10T23:10:45.601Z,7.37
2018-02-10T23:13:16.024Z,7.70
2018-02-10T23:15:44.360Z,8.30
2018-02-10T23:18:14.398Z,9.27
2018-02-10T23:20:42.684Z,11.05
2018-02-10T23:23:13.945Z,6.97
2018-02-10T23:25:42.219Z,11.00
2018-02-10T23:28:17.223Z,9.77
2018-02-10T23:30:47.304Z,8.90
2018-02-10T23:33:17.571Z,10.50
2018-02-10T23:35:47.890Z,9.20
2018-02-10T23:38:18.997Z,8.23
2018-02-10T23:40:48.917Z,10.60
2018-02-10T23:43:20.129Z,8.50
2018-02-10T23:45:50.207Z,9.93
2018-02-10T23:48:20.405Z,10.45
2018-02-10T23:50:50.942Z,7.55
2018-02-10T23:53:21.017Z,6.70
2018-02-10T23:55:50.975Z,6.12
2018-02-10T23:58:24.544Z,11.18
